Time;durP1;ratioP1;P1;durP2;ratioP2;P2;SDS_P1;SDS_P2;PMS_P1;PMS_P2;Temp;Humidity;BMP_temperature;BMP_pressure;BME280_temperature;BME280_humidity;BME280_pressure;Samples;Min_cycle;Max_cycle;Signal;HPM_P1;HPM_P2
2022/10/29 00:01:22;;;;;;;12.77;5.60;;;16.70;99.90;;;;;;5054194;28;20225;-56
2022/10/29 00:03:48;;;;;;;16.20;5.60;;;16.70;99.90;;;;;;5054436;28;20210;-57
2022/10/29 00:06:15;;;;;;;17.60;6.00;;;16.60;99.90;;;;;;5053338;28;20209;-57
2022/10/29 00:08:43;;;;;;;19.23;6.27;;;16.50;99.90;;;;;;5053615;28;20210;-56
2022/10/29 00:11:12;;;;;;;18.50;6.73;;;16.40;99.90;;;;;;5053179;28;20230;-57
2022/10/29 00:13:39;;;;;;;18.03;5.87;;;16.40;99.90;;;;;;5053276;28;20217;-57
2022/10/29 00:16:08;;;;;;;17.97;6.30;;;16.40;99.90;;;;;;5052955;28;20206;-56
2022/10/29 00:18:34;;;;;;;15.07;5.50;;;16.40;99.90;;;;;;5053582;28;20259;-56
2022/10/29 00:21:02;;;;;;;17.23;5.80;;;16.40;99.90;;;;;;5053502;28;20221;-59
2022/10/29 00:23:29;;;;;;;16.97;6.00;;;16.40;99.90;;;;;;5052740;28;20279;-57
2022/10/29 00:25:57;;;;;;;13.23;6.00;;;16.40;99.90;;;;;;5052468;28;20745;-59
2022/10/29 00:28:24;;;;;;;17.50;5.83;;;16.50;99.90;;;;;;5053289;28;20263;-58
2022/10/29 00:30:51;;;;;;;14.57;6.43;;;16.50;99.90;;;;;;5053012;28;20225;-59
2022/10/29 00:33:19;;;;;;;19.13;7.17;;;16.50;99.90;;;;;;5053384;28;20206;-56
2022/10/29 00:35:55;;;;;;;17.83;5.70;;;16.50;99.90;;;;;;5052523;28;20206;-59
2022/10/29 00:38:21;;;;;;;17.97;6.13;;;16.50;99.90;;;;;;5052749;28;20368;-62
2022/10/29 00:40:48;;;;;;;14.37;6.17;;;16.50;99.90;;;;;;5052532;28;20595;-59
2022/10/29 00:43:18;;;;;;;13.63;6.07;;;16.50;99.90;;;;;;5052298;28;20214;-59
2022/10/29 00:45:49;;;;;;;18.37;6.33;;;16.50;99.90;;;;;;5052951;28;20580;-56
2022/10/29 00:48:16;;;;;;;15.70;6.53;;;16.60;99.90;;;;;;5052474;28;20247;-57
2022/10/29 00:50:43;;;;;;;15.43;6.00;;;16.60;99.90;;;;;;5052667;28;20226;-56
2022/10/29 00:53:10;;;;;;;15.57;6.50;;;16.50;99.90;;;;;;5052395;28;20213;-58
2022/10/29 00:55:37;;;;;;;15.30;6.13;;;16.50;99.90;;;;;;5052503;28;20201;-56
2022/10/29 00:58:04;;;;;;;17.07;6.60;;;16.50;99.90;;;;;;5053117;28;20212;-59
2022/10/29 01:00:32;;;;;;;17.20;6.63;;;16.60;99.90;;;;;;5052586;28;20222;-58
2022/10/29 01:02:59;;;;;;;17.53;6.57;;;16.60;99.90;;;;;;5052399;28;20621;-56
2022/10/29 01:05:26;;;;;;;18.00;6.17;;;16.60;99.90;;;;;;5052230;28;20206;-56
2022/10/29 01:07:52;;;;;;;15.73;5.70;;;16.60;99.90;;;;;;5051705;28;20201;-58
2022/10/29 01:10:27;;;;;;;12.57;6.17;;;16.70;99.90;;;;;;5052103;28;20280;-56
2022/10/29 01:13:14;;;;;;;18.90;5.93;;;16.70;99.90;;;;;;5052325;28;20217;-57
2022/10/29 01:15:48;;;;;;;17.23;6.40;;;16.70;99.90;;;;;;5052239;28;20205;-56
2022/10/29 01:18:20;;;;;;;17.67;6.20;;;16.70;99.90;;;;;;5051880;28;20296;-58
2022/10/29 01:21:07;;;;;;;16.17;5.83;;;16.60;99.90;;;;;;5052342;28;20267;-56
2022/10/29 01:24:02;;;;;;;22.70;5.97;;;16.60;99.90;;;;;;5052143;28;20271;-57
2022/10/29 01:27:16;;;;;;;24.53;6.67;;;16.60;99.90;;;;;;5051874;28;20640;-56
2022/10/29 01:30:01;;;;;;;15.47;5.93;;;16.50;99.90;;;;;;5052561;28;20267;-60
2022/10/29 01:32:36;;;;;;;13.20;5.80;;;16.50;99.90;;;;;;5051877;28;20205;-59
2022/10/29 01:35:09;;;;;;;15.90;6.00;;;16.50;99.90;;;;;;5051157;28;20208;-60
2022/10/29 01:37:44;;;;;;;16.23;6.53;;;16.50;99.90;;;;;;5051626;28;20256;-57
2022/10/29 01:40:17;;;;;;;15.70;5.70;;;16.40;99.90;;;;;;5051945;28;20215;-57
2022/10/29 01:42:49;;;;;;;14.30;5.97;;;16.40;99.90;;;;;;5051733;28;20217;-59
2022/10/29 01:45:21;;;;;;;15.33;6.23;;;16.40;99.90;;;;;;5051724;28;20210;-58
2022/10/29 01:47:55;;;;;;;17.43;6.40;;;16.40;99.90;;;;;;5051554;28;20210;-59
2022/10/29 01:50:24;;;;;;;15.70;5.97;;;16.30;99.90;;;;;;5051805;28;20229;-59
2022/10/29 01:52:52;;;;;;;11.30;6.10;;;16.30;99.90;;;;;;5051246;28;20271;-57
2022/10/29 01:55:21;;;;;;;14.53;6.10;;;16.20;99.90;;;;;;5051788;28;20643;-60
2022/10/29 01:57:48;;;;;;;17.87;6.43;;;16.20;99.90;;;;;;5051139;28;20205;-57
2022/10/29 02:00:17;;;;;;;16.13;5.93;;;16.10;99.90;;;;;;5051512;28;20206;-58
2022/10/29 02:02:57;;;;;;;17.40;6.63;;;16.10;99.90;;;;;;5051836;28;20213;-58
2022/10/29 02:05:31;;;;;;;16.23;6.27;;;16.00;99.90;;;;;;5051492;28;20263;-59
2022/10/29 02:08:03;;;;;;;16.37;6.80;;;16.00;99.90;;;;;;5051362;28;20267;-55
2022/10/29 02:10:35;;;;;;;14.47;6.20;;;16.00;99.90;;;;;;5051683;28;20233;-58
2022/10/29 02:13:02;;;;;;;17.97;7.37;;;16.00;99.90;;;;;;5051352;28;20701;-59
2022/10/29 02:15:35;;;;;;;12.57;5.93;;;16.00;99.90;;;;;;5051494;28;20201;-59
2022/10/29 02:18:05;;;;;;;14.53;6.40;;;15.90;99.90;;;;;;5051325;28;20275;-58
2022/10/29 02:20:32;;;;;;;14.70;6.23;;;15.90;99.90;;;;;;5051525;28;20230;-59
2022/10/29 02:22:59;;;;;;;15.73;6.80;;;15.90;99.90;;;;;;5051481;28;20279;-59
2022/10/29 02:25:27;;;;;;;14.17;6.17;;;15.90;99.90;;;;;;5051473;28;20220;-59
2022/10/29 02:27:54;;;;;;;19.80;6.87;;;15.80;99.90;;;;;;5051335;28;20214;-57
2022/10/29 02:30:20;;;;;;;12.13;6.13;;;15.80;99.90;;;;;;5050670;28;20238;-59
2022/10/29 02:32:47;;;;;;;17.53;6.43;;;15.70;99.90;;;;;;5051421;28;20589;-59
2022/10/29 02:35:15;;;;;;;18.90;6.70;;;15.70;99.90;;;;;;5051388;28;20251;-59
2022/10/29 02:37:42;;;;;;;17.30;6.70;;;15.70;99.90;;;;;;5050917;28;20253;-57
2022/10/29 02:40:09;;;;;;;15.77;6.43;;;15.60;99.90;;;;;;5051173;28;20668;-60
2022/10/29 02:42:36;;;;;;;12.20;6.40;;;15.60;99.90;;;;;;5051259;28;20335;-59
2022/10/29 02:45:03;;;;;;;15.17;6.43;;;15.60;99.90;;;;;;5051200;28;20667;-58
2022/10/29 02:47:30;;;;;;;20.57;7.27;;;15.60;99.90;;;;;;5053388;28;20210;-59
2022/10/29 02:49:56;;;;;;;15.03;5.73;;;15.60;99.90;;;;;;5054716;28;20210;-60
2022/10/29 02:52:25;;;;;;;12.47;5.60;;;15.50;99.90;;;;;;5054546;28;20276;-59
2022/10/29 02:54:51;;;;;;;14.80;6.73;;;15.50;99.90;;;;;;5054802;28;20259;-59
2022/10/29 02:57:18;;;;;;;14.93;6.67;;;15.50;99.90;;;;;;5054676;28;20205;-59
2022/10/29 02:59:44;;;;;;;15.80;5.77;;;15.50;99.90;;;;;;5054585;28;20202;-59
2022/10/29 03:02:11;;;;;;;14.17;6.67;;;15.40;99.90;;;;;;5054551;28;20229;-59
2022/10/29 03:04:38;;;;;;;17.00;6.83;;;15.40;99.90;;;;;;5054554;28;20209;-59
2022/10/29 03:07:05;;;;;;;16.97;7.07;;;15.40;99.90;;;;;;5054816;28;20214;-59
2022/10/29 03:09:33;;;;;;;19.70;7.03;;;15.30;99.90;;;;;;5054652;28;20741;-59
2022/10/29 03:11:59;;;;;;;17.77;6.93;;;15.30;99.90;;;;;;5054390;28;20287;-57
2022/10/29 03:14:26;;;;;;;15.50;7.07;;;15.20;99.90;;;;;;5054391;28;20213;-56
2022/10/29 03:16:53;;;;;;;17.87;7.23;;;15.20;99.90;;;;;;5054222;28;21012;-60
2022/10/29 03:19:19;;;;;;;19.50;6.97;;;15.10;99.90;;;;;;5053698;28;20259;-57
2022/10/29 03:21:46;;;;;;;17.33;7.13;;;15.10;99.90;;;;;;5054309;28;20226;-59
2022/10/29 03:24:13;;;;;;;19.80;7.13;;;15.10;99.90;;;;;;5053647;28;20206;-59
2022/10/29 03:26:41;;;;;;;17.70;6.73;;;15.10;99.90;;;;;;5053351;28;20256;-59
2022/10/29 03:29:07;;;;;;;20.40;7.00;;;15.10;99.90;;;;;;5054052;28;20213;-60
2022/10/29 03:31:34;;;;;;;16.70;7.03;;;15.00;99.90;;;;;;5053980;28;20766;-59
2022/10/29 03:34:01;;;;;;;14.43;6.63;;;15.00;99.90;;;;;;5053725;28;20267;-57
2022/10/29 03:36:27;;;;;;;17.90;7.20;;;15.00;99.90;;;;;;5054016;28;20275;-57
2022/10/29 03:38:54;;;;;;;22.67;7.97;;;15.00;99.90;;;;;;5053486;28;20206;-59
2022/10/29 03:41:20;;;;;;;19.57;7.73;;;15.10;99.90;;;;;;5053846;28;20225;-59
2022/10/29 03:43:48;;;;;;;19.00;7.37;;;15.10;99.90;;;;;;5053584;28;20212;-59
2022/10/29 03:46:15;;;;;;;16.00;7.40;;;15.10;99.90;;;;;;5052978;28;20255;-57
2022/10/29 03:48:42;;;;;;;29.30;8.63;;;15.10;99.90;;;;;;5053407;28;20627;-59
2022/10/29 03:51:10;;;;;;;18.13;7.93;;;15.10;99.90;;;;;;5053463;28;20237;-59
2022/10/29 03:53:37;;;;;;;17.30;7.47;;;15.10;99.90;;;;;;5053928;28;20618;-56
2022/10/29 03:56:05;;;;;;;15.20;7.60;;;15.10;99.90;;;;;;5053538;28;20267;-57
2022/10/29 03:58:32;;;;;;;18.77;7.37;;;15.10;99.90;;;;;;5052947;28;20212;-59
2022/10/29 04:01:02;;;;;;;15.57;7.40;;;15.20;99.90;;;;;;5053473;28;20228;-57
2022/10/29 04:03:31;;;;;;;21.33;8.43;;;15.20;99.90;;;;;;5053663;28;20209;-55
2022/10/29 04:05:58;;;;;;;13.60;7.13;;;15.20;99.90;;;;;;5053119;28;20259;-51
2022/10/29 04:08:25;;;;;;;16.67;7.57;;;15.20;99.90;;;;;;5053366;28;20209;-54
2022/10/29 04:10:53;;;;;;;22.63;7.67;;;15.20;99.90;;;;;;5053411;28;20312;-56
2022/10/29 04:13:20;;;;;;;18.03;7.20;;;15.20;99.90;;;;;;5053348;28;20677;-52
2022/10/29 04:15:47;;;;;;;20.00;7.83;;;15.20;99.90;;;;;;5052825;28;20620;-59
2022/10/29 04:18:15;;;;;;;20.70;7.87;;;15.20;99.90;;;;;;5053187;28;20206;-56
2022/10/29 04:20:41;;;;;;;17.00;7.43;;;15.30;99.90;;;;;;5053072;28;20233;-57
2022/10/29 04:23:08;;;;;;;17.60;7.43;;;15.40;99.90;;;;;;5053322;28;20209;-58
2022/10/29 04:25:35;;;;;;;20.17;8.13;;;15.40;99.90;;;;;;5053025;28;20205;-57
2022/10/29 04:28:01;;;;;;;20.27;7.33;;;15.40;99.90;;;;;;5052925;28;20255;-55
2022/10/29 04:30:28;;;;;;;20.17;7.57;;;15.40;99.90;;;;;;5052935;28;20268;-55
2022/10/29 04:32:59;;;;;;;21.47;7.70;;;15.30;99.90;;;;;;5052879;28;20639;-57
2022/10/29 04:35:28;;;;;;;15.53;7.43;;;15.30;99.90;;;;;;5052778;28;20210;-55
2022/10/29 04:37:55;;;;;;;16.50;7.63;;;15.30;99.90;;;;;;5052405;28;20206;-60
2022/10/29 04:40:23;;;;;;;19.40;7.80;;;15.20;99.90;;;;;;5052494;28;20715;-58
2022/10/29 04:42:50;;;;;;;13.60;7.37;;;15.20;99.90;;;;;;5052693;28;20229;-57
2022/10/29 04:45:16;;;;;;;19.27;7.97;;;15.20;99.90;;;;;;5052853;28;20216;-54
2022/10/29 04:47:43;;;;;;;14.43;7.73;;;15.20;99.90;;;;;;5052602;28;20206;-59
2022/10/29 04:50:10;;;;;;;17.37;8.10;;;15.20;99.90;;;;;;5052492;28;20616;-55
2022/10/29 04:52:38;;;;;;;20.53;7.90;;;15.20;99.90;;;;;;5052461;28;20770;-57
2022/10/29 04:55:05;;;;;;;17.57;7.43;;;15.20;99.90;;;;;;5052175;28;20209;-58
2022/10/29 04:57:31;;;;;;;16.97;7.10;;;15.30;99.90;;;;;;5052440;28;20244;-59
2022/10/29 04:59:58;;;;;;;23.40;7.40;;;15.30;99.90;;;;;;5052462;28;20201;-56
2022/10/29 05:02:25;;;;;;;13.43;7.30;;;15.30;99.90;;;;;;5052459;28;20201;-53
2022/10/29 05:04:51;;;;;;;21.43;7.50;;;15.40;99.90;;;;;;5052054;28;20210;-59
2022/10/29 05:07:18;;;;;;;15.87;6.93;;;15.40;99.90;;;;;;5052110;28;20205;-59
2022/10/29 05:09:46;;;;;;;17.97;6.80;;;15.50;99.90;;;;;;5051518;28;20624;-59
2022/10/29 05:12:12;;;;;;;15.20;6.77;;;15.50;99.90;;;;;;5052201;28;20291;-59
2022/10/29 05:14:39;;;;;;;17.60;7.33;;;15.50;99.90;;;;;;5051649;28;20676;-59
2022/10/29 05:17:06;;;;;;;21.17;7.87;;;15.50;99.90;;;;;;5052148;28;20213;-58
2022/10/29 05:19:32;;;;;;;13.70;7.27;;;15.60;99.90;;;;;;5052054;28;20205;-57
2022/10/29 05:21:59;;;;;;;20.60;7.67;;;15.60;99.90;;;;;;5052136;28;20229;-60
2022/10/29 05:24:25;;;;;;;24.40;7.43;;;15.60;99.90;;;;;;5051757;28;20209;-57
2022/10/29 05:26:53;;;;;;;17.33;7.50;;;15.60;99.90;;;;;;5052011;28;20209;-58
2022/10/29 05:29:20;;;;;;;17.73;7.77;;;15.60;99.90;;;;;;5051710;28;20229;-60
2022/10/29 05:31:47;;;;;;;15.87;7.90;;;15.60;99.90;;;;;;5051183;28;20610;-59
2022/10/29 05:34:13;;;;;;;13.27;6.93;;;15.60;99.90;;;;;;5051958;28;20210;-57
2022/10/29 05:36:40;;;;;;;21.43;7.17;;;15.60;99.90;;;;;;5051621;28;20205;-56
2022/10/29 05:39:06;;;;;;;14.13;6.37;;;15.60;99.90;;;;;;5051589;28;20205;-59
2022/10/29 05:41:33;;;;;;;17.17;6.40;;;15.60;99.90;;;;;;5051931;28;20221;-59
2022/10/29 05:44:01;;;;;;;18.57;6.40;;;15.60;99.90;;;;;;5051767;28;20271;-59
2022/10/29 05:46:27;;;;;;;16.83;7.00;;;15.60;99.90;;;;;;5051601;28;20206;-59
2022/10/29 05:48:54;;;;;;;19.13;6.90;;;15.60;99.90;;;;;;5051591;28;20260;-59
2022/10/29 05:51:21;;;;;;;16.80;6.00;;;15.50;99.90;;;;;;5051490;28;20746;-58
2022/10/29 05:53:48;;;;;;;19.70;6.67;;;15.60;99.90;;;;;;5051678;28;20256;-59
2022/10/29 05:56:14;;;;;;;12.17;6.17;;;15.60;99.90;;;;;;5051625;28;20205;-59
2022/10/29 05:58:41;;;;;;;14.30;5.87;;;15.60;99.90;;;;;;5051532;28;20206;-59
2022/10/29 06:01:10;;;;;;;20.73;6.87;;;15.60;99.90;;;;;;5051570;28;20651;-58
2022/10/29 06:03:37;;;;;;;18.13;6.37;;;15.60;99.90;;;;;;5051586;28;20205;-60
2022/10/29 06:06:04;;;;;;;16.77;6.33;;;15.60;99.90;;;;;;5051214;28;20205;-59
2022/10/29 06:08:31;;;;;;;20.03;6.03;;;15.60;99.90;;;;;;5051870;28;20214;-59
2022/10/29 06:11:00;;;;;;;15.87;5.83;;;15.60;99.90;;;;;;5051576;28;20641;-60
2022/10/29 06:13:27;;;;;;;13.60;5.57;;;15.60;99.90;;;;;;5051538;28;20298;-59
2022/10/29 06:15:57;;;;;;;20.47;6.60;;;15.60;99.90;;;;;;5051208;28;20263;-58
2022/10/29 06:18:26;;;;;;;15.60;6.70;;;15.70;99.90;;;;;;5051168;28;20296;-59
2022/10/29 06:20:52;;;;;;;14.60;5.57;;;15.70;99.90;;;;;;5051096;28;20234;-57
2022/10/29 06:23:19;;;;;;;14.63;5.87;;;15.70;99.90;;;;;;5055406;28;20198;-59
2022/10/29 06:25:46;;;;;;;19.77;6.53;;;15.70;99.90;;;;;;5055197;28;20205;-59
2022/10/29 06:28:14;;;;;;;12.00;5.00;;;15.70;99.90;;;;;;5054985;28;20213;-57
2022/10/29 06:30:41;;;;;;;12.73;5.40;;;15.70;99.90;;;;;;5054936;28;20329;-59
2022/10/29 06:33:08;;;;;;;15.90;5.80;;;15.70;99.90;;;;;;5055027;28;20703;-59
2022/10/29 06:35:36;;;;;;;12.10;5.60;;;15.70;99.90;;;;;;5054946;28;20206;-57
2022/10/29 06:38:03;;;;;;;15.77;5.67;;;15.80;99.90;;;;;;5055183;28;20276;-59
2022/10/29 06:40:29;;;;;;;15.17;5.40;;;15.80;99.90;;;;;;5055039;28;20308;-58
2022/10/29 06:43:00;;;;;;;13.97;5.90;;;15.80;99.90;;;;;;5054999;28;20202;-57
2022/10/29 06:45:27;;;;;;;12.23;5.00;;;15.80;99.90;;;;;;5054802;28;20698;-59
2022/10/29 06:47:53;;;;;;;13.77;5.77;;;15.80;99.90;;;;;;5054479;28;20209;-59
2022/10/29 06:50:20;;;;;;;16.57;6.10;;;15.90;99.90;;;;;;5055022;28;20225;-59
2022/10/29 06:52:58;;;;;;;13.10;5.17;;;15.90;99.90;;;;;;5054667;28;20225;-60
2022/10/29 06:55:25;;;;;;;14.97;5.30;;;16.00;99.90;;;;;;5054794;28;20672;-60
2022/10/29 06:57:59;;;;;;;18.67;5.43;;;16.00;99.90;;;;;;5054182;28;20213;-60
2022/10/29 07:00:26;;;;;;;13.47;5.77;;;16.00;99.90;;;;;;5054650;28;20279;-59
2022/10/29 07:02:53;;;;;;;18.57;5.57;;;16.10;99.90;;;;;;5054808;28;20202;-54
2022/10/29 07:05:20;;;;;;;13.00;4.97;;;16.20;99.90;;;;;;5054669;28;20255;-57
2022/10/29 07:07:47;;;;;;;15.00;4.67;;;16.30;99.90;;;;;;5054097;28;20738;-59
2022/10/29 07:10:15;;;;;;;15.83;5.43;;;16.40;99.90;;;;;;5053772;28;20212;-59
2022/10/29 07:12:42;;;;;;;16.33;5.10;;;16.40;99.90;;;;;;5054257;28;20630;-59
2022/10/29 07:15:10;;;;;;;13.30;4.57;;;16.50;99.90;;;;;;5054588;28;20263;-59
2022/10/29 07:17:37;;;;;;;14.83;5.60;;;16.60;99.90;;;;;;5054025;28;20202;-59
2022/10/29 07:20:06;;;;;;;15.13;4.83;;;16.60;99.90;;;;;;5054315;28;20209;-59
2022/10/29 07:22:33;;;;;;;17.97;4.80;;;16.60;99.90;;;;;;5054077;28;20795;-60
2022/10/29 07:24:59;;;;;;;13.90;5.10;;;16.70;99.90;;;;;;5054135;28;20234;-56
2022/10/29 07:27:28;;;;;;;16.40;5.07;;;16.70;99.90;;;;;;5053103;28;20255;-59
2022/10/29 07:29:55;;;;;;;16.10;4.67;;;16.70;99.90;;;;;;5053708;28;20213;-60
2022/10/29 07:32:23;;;;;;;12.13;5.07;;;16.80;99.90;;;;;;5053830;28;20646;-59
2022/10/29 07:34:49;;;;;;;13.03;5.00;;;16.80;99.90;;;;;;5053392;28;20209;-60
2022/10/29 07:37:16;;;;;;;10.43;4.70;;;16.80;99.90;;;;;;5053746;28;20210;-59
2022/10/29 07:39:42;;;;;;;15.77;4.73;;;16.80;99.90;;;;;;5053758;28;20244;-59
2022/10/29 07:42:09;;;;;;;18.53;7.67;;;16.90;99.90;;;;;;5053755;28;20225;-59
2022/10/29 07:44:37;;;;;;;13.10;4.90;;;16.90;99.90;;;;;;5053964;28;20256;-59
2022/10/29 07:47:04;;;;;;;15.23;4.53;;;17.00;99.90;;;;;;5053663;28;20213;-58
2022/10/29 07:49:30;;;;;;;13.77;4.73;;;17.00;99.90;;;;;;5053858;28;20213;-54
2022/10/29 07:51:57;;;;;;;10.93;3.77;;;17.10;99.90;;;;;;5053574;28;20233;-54
2022/10/29 07:54:23;;;;;;;12.60;4.73;;;17.20;99.90;;;;;;5053383;28;20209;-57
2022/10/29 07:56:52;;;;;;;10.90;4.13;;;17.20;99.90;;;;;;5053557;28;20209;-59
2022/10/29 07:59:19;;;;;;;9.93;4.13;;;17.30;99.90;;;;;;5053721;28;20206;-59
2022/10/29 08:01:47;;;;;;;9.30;3.60;;;17.40;99.90;;;;;;5053388;28;20688;-57
2022/10/29 08:04:14;;;;;;;9.03;3.63;;;17.50;99.90;;;;;;5053395;28;20275;-59
2022/10/29 08:06:40;;;;;;;11.43;3.80;;;17.60;99.90;;;;;;5052927;28;20339;-58
2022/10/29 08:09:07;;;;;;;14.37;4.20;;;17.60;99.90;;;;;;5053348;28;20201;-55
2022/10/29 08:11:34;;;;;;;18.03;4.63;;;17.70;99.90;;;;;;5053381;28;20230;-59
2022/10/29 08:14:00;;;;;;;8.90;4.10;;;17.70;99.90;;;;;;5053330;28;20225;-59
2022/10/29 08:16:27;;;;;;;13.63;3.83;;;17.70;99.90;;;;;;5053251;28;20205;-58
2022/10/29 08:18:55;;;;;;;16.27;4.50;;;17.70;99.90;;;;;;5053145;28;20206;-56
2022/10/29 08:21:22;;;;;;;11.13;3.97;;;17.70;99.90;;;;;;5053127;28;20295;-59
2022/10/29 08:23:49;;;;;;;13.40;3.93;;;17.70;99.90;;;;;;5053407;28;20210;-59
2022/10/29 08:26:16;;;;;;;8.30;3.83;;;17.60;99.90;;;;;;5052954;28;20256;-57
2022/10/29 08:28:43;;;;;;;17.97;3.97;;;17.70;99.90;;;;;;5052902;28;20312;-57
2022/10/29 08:31:10;;;;;;;10.50;3.97;;;17.80;99.90;;;;;;5052782;28;20644;-59
2022/10/29 08:33:37;;;;;;;11.70;4.17;;;17.80;99.90;;;;;;5052834;28;20226;-60
2022/10/29 08:36:05;;;;;;;9.07;3.60;;;17.80;99.90;;;;;;5052380;28;20561;-58
2022/10/29 08:38:32;;;;;;;12.30;3.90;;;17.80;99.90;;;;;;5052394;28;20209;-59
2022/10/29 08:41:12;;;;;;;18.13;4.80;;;17.80;99.90;;;;;;5052792;28;20229;-61
2022/10/29 08:44:10;;;;;;;10.73;4.87;;;17.90;99.90;;;;;;5052680;28;20340;-61
2022/10/29 08:46:44;;;;;;;12.77;3.70;;;17.90;99.90;;;;;;5052320;28;20205;-61
2022/10/29 08:49:17;;;;;;;13.53;4.23;;;18.00;99.90;;;;;;5052668;28;20296;-60
2022/10/29 08:51:51;;;;;;;10.67;3.50;;;18.00;99.90;;;;;;5052559;28;20229;-59
2022/10/29 08:54:18;;;;;;;9.43;3.87;;;18.00;99.90;;;;;;5052564;28;20225;-58
2022/10/29 08:56:48;;;;;;;10.60;4.07;;;18.00;99.90;;;;;;5052306;28;20209;-60
2022/10/29 08:59:17;;;;;;;10.77;3.60;;;18.10;99.90;;;;;;5052155;28;20571;-61
2022/10/29 09:01:44;;;;;;;14.20;3.93;;;18.10;99.90;;;;;;5052286;28;20255;-61
2022/10/29 09:04:23;;;;;;;14.87;4.03;;;18.20;99.90;;;;;;5052372;28;20205;-56
2022/10/29 09:07:07;;;;;;;11.40;4.23;;;18.40;99.90;;;;;;5051829;28;20320;-59
2022/10/29 09:09:39;;;;;;;13.03;3.90;;;18.70;99.90;;;;;;5051897;28;20746;-61
2022/10/29 09:12:27;;;;;;;10.60;4.80;;;19.00;99.90;;;;;;5052298;28;20221;-60
2022/10/29 09:15:26;;;;;;;9.20;3.60;;;19.20;99.90;;;;;;5052269;28;20252;-57
2022/10/29 09:18:10;;;;;;;7.43;3.33;;;19.40;99.50;;;;;;5051782;28;20193;-57
2022/10/29 09:20:45;;;;;;;11.73;3.77;;;19.50;92.30;;;;;;5052231;28;20229;-60
2022/10/29 09:23:21;;;;;;;10.87;3.50;;;19.50;80.40;;;;;;5052068;28;20244;-60
2022/10/29 09:25:53;;;;;;;12.53;3.37;;;19.50;91.40;;;;;;5051917;28;20205;-60
2022/10/29 09:28:32;;;;;;;11.50;3.77;;;19.60;89.40;;;;;;5051725;28;20676;-61
2022/10/29 09:31:06;;;;;;;11.60;3.80;;;19.70;83.50;;;;;;5052047;28;20315;-60
2022/10/29 09:33:33;;;;;;;8.37;3.90;;;19.80;71.60;;;;;;5052009;28;20287;-60
2022/10/29 09:36:01;;;;;;;13.03;4.17;;;19.80;51.20;;;;;;5051827;28;20584;-61
2022/10/29 09:38:31;;;;;;;10.40;3.80;;;19.90;75.30;;;;;;5051747;28;20214;-60
2022/10/29 09:41:00;;;;;;;13.20;4.07;;;20.00;72.20;;;;;;5051930;28;20229;-61
2022/10/29 09:43:38;;;;;;;12.87;3.63;;;20.00;71.50;;;;;;5051763;28;20223;-61
2022/10/29 09:46:13;;;;;;;11.07;3.40;;;20.00;49.50;;;;;;5051405;28;20297;-55
2022/10/29 09:48:48;;;;;;;10.97;3.40;;;20.10;35.20;;;;;;5050841;28;20683;-61
2022/10/29 09:51:28;;;;;;;9.50;3.97;;;20.10;53.20;;;;;;5051625;28;20648;-61
2022/10/29 09:53:56;;;;;;;11.67;3.37;;;20.20;38.00;;;;;;5051460;28;20646;-61
2022/10/29 09:56:23;;;;;;;10.37;3.57;;;20.20;45.40;;;;;;5053667;28;20640;-60
2022/10/29 09:58:57;;;;;;;11.83;4.03;;;20.20;36.10;;;;;;5058275;28;20615;-61
2022/10/29 10:01:23;;;;;;;9.87;3.40;;;20.30;32.60;;;;;;5058190;28;20781;-61
2022/10/29 10:04:04;;;;;;;14.87;4.03;;;20.30;13.70;;;;;;5058106;28;20734;-61
2022/10/29 10:06:55;;;;;;;10.53;3.37;;;20.50;1.00;;;;;;5058132;28;20208;-58
2022/10/29 10:09:23;;;;;;;18.43;3.73;;;20.50;1.00;;;;;;5058081;28;20255;-59
2022/10/29 10:11:53;;;;;;;12.67;3.53;;;20.60;1.00;;;;;;5058003;28;20224;-60
2022/10/29 10:14:21;;;;;;;9.03;3.57;;;20.50;1.00;;;;;;5057324;28;20322;-61
2022/10/29 10:16:57;;;;;;;9.70;3.60;;;20.40;1.00;;;;;;5058039;28;20206;-60
2022/10/29 10:19:25;;;;;;;14.17;3.90;;;20.50;1.00;;;;;;5057948;28;20214;-61
2022/10/29 10:22:02;;;;;;;13.33;3.77;;;20.50;1.00;;;;;;5057894;28;20593;-61
2022/10/29 10:24:33;;;;;;;9.77;3.80;;;20.60;99.90;;;;;;5058252;28;20200;-61
2022/10/29 10:27:00;;;;;;;6.93;3.53;;;20.70;99.90;;;;;;5058092;28;20216;-61
2022/10/29 10:29:28;;;;;;;11.37;4.10;;;20.70;99.90;;;;;;5058334;28;20217;-60
2022/10/29 10:32:10;;;;;;;18.90;3.30;;;20.70;99.90;;;;;;5058466;28;20256;-61
2022/10/29 10:34:38;;;;;;;12.57;3.30;;;20.80;99.90;;;;;;5057924;28;20228;-61
2022/10/29 10:37:13;;;;;;;13.33;3.60;;;20.80;99.90;;;;;;5057459;28;20652;-61
2022/10/29 10:39:43;;;;;;;11.57;3.90;;;20.90;99.90;;;;;;5058091;28;20615;-61
2022/10/29 10:42:16;;;;;;;12.73;4.00;;;21.10;62.00;;;;;;5058001;28;20279;-61
2022/10/29 10:44:48;;;;;;;9.10;4.53;;;21.20;1.00;;;;;;5057370;28;20264;-61
2022/10/29 10:47:18;;;;;;;12.70;3.50;;;21.30;1.00;;;;;;5057377;28;20633;-61
2022/10/29 10:49:45;;;;;;;9.87;3.87;;;21.30;99.90;;;;;;5057832;28;20267;-61
2022/10/29 10:52:17;;;;;;;11.40;3.63;;;21.30;99.90;;;;;;5057818;28;20785;-61
2022/10/29 10:54:53;;;;;;;9.93;3.70;;;21.40;99.90;;;;;;5057680;28;20320;-61
2022/10/29 10:57:23;;;;;;;11.03;3.83;;;21.60;99.90;;;;;;5057721;28;20204;-61
2022/10/29 10:59:58;;;;;;;14.87;3.40;;;21.70;93.90;;;;;;5057659;28;20263;-61
2022/10/29 11:02:31;;;;;;;12.13;3.10;;;21.60;99.90;;;;;;5057981;28;20209;-61
2022/10/29 11:05:02;;;;;;;15.83;3.50;;;21.60;1.00;;;;;;5057391;28;20205;-61
2022/10/29 11:07:33;;;;;;;9.13;3.33;;;21.60;89.80;;;;;;5056851;28;20673;-61
2022/10/29 11:10:04;;;;;;;7.97;3.50;;;21.50;1.00;;;;;;5054208;28;20283;-61
2022/10/29 11:12:35;;;;;;;11.40;3.30;;;21.50;95.00;;;;;;5041489;28;20210;-61
2022/10/29 11:15:10;;;;;;;9.43;3.17;;;21.60;99.90;;;;;;5053788;28;20279;-60
2022/10/29 11:17:45;;;;;;;8.90;3.57;;;21.70;1.00;;;;;;5053067;28;20205;-64
2022/10/29 11:20:18;;;;;;;15.73;3.53;;;21.70;99.90;;;;;;5053485;28;20208;-60
2022/10/29 11:22:54;;;;;;;8.17;3.97;;;21.70;99.90;;;;;;5053561;28;20209;-61
2022/10/29 11:25:30;;;;;;;17.47;4.87;;;21.80;99.90;;;;;;5053779;28;20263;-61
2022/10/29 11:28:03;;;;;;;11.70;4.13;;;21.80;95.70;;;;;;5053782;28;20591;-61
2022/10/29 11:30:33;;;;;;;11.83;3.80;;;21.80;1.00;;;;;;5053641;28;20238;-62
2022/10/29 11:33:13;;;;;;;12.23;4.17;;;21.90;99.90;;;;;;5052391;28;20213;-63
2022/10/29 11:35:45;;;;;;;13.53;3.30;;;22.00;99.90;;;;;;5053879;28;20205;-64
2022/10/29 11:38:18;;;;;;;8.97;3.43;;;22.10;1.00;;;;;;5053781;28;20235;-62
2022/10/29 11:40:50;;;;;;;16.97;3.83;;;22.30;1.00;;;;;;5053709;28;20232;-64
2022/10/29 11:43:20;;;;;;;9.23;3.93;;;22.30;99.90;;;;;;5053445;28;20213;-62
2022/10/29 11:45:57;;;;;;;13.20;3.87;;;22.50;99.90;;;;;;5053422;28;20275;-65
2022/10/29 11:48:37;;;;;;;10.03;3.10;;;22.50;1.00;;;;;;5053951;28;20215;-65
2022/10/29 11:51:14;;;;;;;13.43;3.40;;;22.60;1.00;;;;;;5053635;28;20590;-62
2022/10/29 11:54:00;;;;;;;13.43;3.23;;;22.60;99.90;;;;;;5053582;28;20225;-66
2022/10/29 11:56:48;;;;;;;14.63;3.37;;;22.40;1.00;;;;;;5053178;28;20206;-65
2022/10/29 11:59:32;;;;;;;13.77;3.50;;;22.50;99.90;;;;;;5053296;28;20206;-61
2022/10/29 12:02:13;;;;;;;13.93;3.90;;;22.50;1.00;;;;;;5052883;28;20651;-62
2022/10/29 12:04:45;;;;;;;12.20;3.60;;;22.50;99.90;;;;;;5053335;28;20276;-62
2022/10/29 12:07:21;;;;;;;14.20;3.90;;;22.50;99.90;;;;;;5053013;28;20212;-61
2022/10/29 12:10:22;;;;;;;11.00;3.20;;;22.60;99.90;;;;;;5053064;28;20794;-60
2022/10/29 12:12:55;;;;;;;14.83;3.10;;;22.60;99.90;;;;;;4999601;28;20205;-62
2022/10/29 12:15:25;;;;;;;9.10;3.13;;;22.60;99.90;;;;;;5052817;28;20628;-61
2022/10/29 12:18:01;;;;;;;12.83;3.53;;;22.60;99.90;;;;;;5053226;28;20316;-62
2022/10/29 12:20:33;;;;;;;17.17;3.17;;;22.70;99.90;;;;;;5052254;28;20648;-62
2022/10/29 12:23:08;;;;;;;11.90;3.77;;;22.70;99.90;;;;;;5052381;28;20201;-64
2022/10/29 12:25:55;;;;;;;8.83;3.20;;;22.70;99.90;;;;;;5053128;28;20698;-63
2022/10/29 12:28:35;;;;;;;20.33;3.27;;;22.50;99.90;;;;;;5052566;28;20237;-63
2022/10/29 12:31:13;;;;;;;12.27;3.47;;;22.40;99.90;;;;;;5052636;28;20229;-63
2022/10/29 12:33:48;;;;;;;9.27;2.93;;;22.50;99.90;;;;;;5052116;28;20236;-63
2022/10/29 12:36:20;;;;;;;10.50;3.07;;;22.40;99.90;;;;;;5052703;28;20217;-65
2022/10/29 12:38:51;;;;;;;13.17;3.40;;;22.40;99.90;;;;;;5049284;28;20240;-64
2022/10/29 12:41:23;;;;;;;11.03;3.53;;;22.30;99.90;;;;;;5049470;28;20222;-63
2022/10/29 12:43:53;;;;;;;9.47;2.93;;;22.40;99.90;;;;;;5052143;28;20205;-62
2022/10/29 12:46:31;;;;;;;13.00;3.60;;;22.50;99.90;;;;;;5048596;28;20218;-64
2022/10/29 12:49:06;;;;;;;14.57;3.63;;;22.60;99.90;;;;;;5044372;28;20206;-64
2022/10/29 12:51:40;;;;;;;13.07;3.47;;;22.60;99.90;;;;;;5048783;28;20637;-63
2022/10/29 12:54:21;;;;;;;10.30;3.20;;;22.50;99.90;;;;;;5052009;28;20633;-63